Terminal Aerodrome Forecast
Issued by NWS

Home | Current Version | Previous Version | Text Only | Print | Product List | Glossary On
Versions: 1 2 3 4 5 6 7 8 9 10 11 12 13 14 15 16 17 18
000
FTUS46 KLOX 080533
TAFWJF
TAF
KWJF 080533Z 0806/0906 22010KT P6SM SKC
     FM081800 22015KT P6SM SKC
     FM082000 22015G25KT P6SM SKC
     FM082200 22022G32KT P6SM SKC
     FM090300 22018KT P6SM SKC=

USA.gov is the U.S. government's official web portal to all federal, state and local government web resources and services.